Saco, Maine
Current Conditions -  °F | °C
As of 1:51 AM on Sunday 26 Oct 2014 (Local Time) from KPWM Reporting Station
Clear Clear  
Wind Chill: 53°   Ceiling: Unl
Heat Index: 53°   Visibility: 10mi
Dew Point: 46°   Wind: 7mph
Humidity: 77%   Direction: 230°SW
Pressure: 29.41"   Gusts: NA
Location:  43.5°N, 70.44°W
Report Text: KPWM 260551Z AUTO 23006KT 10SM CLR 12/08 A2941 RMK AO2 SLP959 60000 T01170078 10122 20089 56024
Loading
Personal Weather Stations






























Interactive Weather Map
Tropical Storm Tracking
New forecast layout! Learn more

10-Day Weather Forecast

Advertisements
Track Severe Weather on mobile